Latest Weather Observations for Montague Island

IDN60801

Issued at 8:32 am EST Tuesday 25 July 2017 (issued every 30 minutes, with the page automatically refreshed every 10 minutes)

About weather observations | Map of weather stations | Latest weather observations for NSW | Other Formats
Station Details ID: 069017 Name: MONTAGUE ISLAND LIGHTHOUSE Lat: -36.25 Lon: 150.23 Height: 52.0 m
Data from the previous 72 hours. | See also: Recent months at Montague Island
Date/Time
EST
Temp
°C
App
Temp
°C
Dew
Point
°C
Rel
Hum
%
Delta-T
°C
Wind Press
QNH
hPa
Press
MSL
hPa
Rain since
9am
mm
Dir  Spd
km/h
Gust
km/h
Spd
kts
Gust
kts
25/08:30am 12.1 9.1 6.2 67 2.8 NW 11 15 6 8 1019.8 1019.8 0.0
25/08:00am 12.0 8.7 4.7 61 3.3 NW 11 15 6 8 1019.8 1019.8 0.0
25/07:30am 11.9 8.5 4.2 59 3.5 NW 11 15 6 8 1019.6 1019.6 0.0
25/07:00am 11.4 7.7 4.2 61 3.2 WNW 13 17 7 9 1019.5 1019.5 0.0
25/06:30am 11.3 7.6 4.3 62 3.2 WNW 13 17 7 9 1019.3 1019.3 0.0
25/06:00am 11.7 6.9 4.4 61 3.3 W 19 22 10 12 1019.0 1019.0 0.0
25/05:30am 10.9 7.5 4.1 63 3.0 WNW 11 17 6 9 1018.9 1018.9 0.0
25/05:00am 10.6 7.7 4.5 66 2.7 WNW 9 13 5 7 1019.0 1019.0 0.0
25/04:30am 10.5 7.6 4.4 66 2.7 WNW 9 15 5 8 1018.9 1018.9 0.0
25/04:00am 10.8 7.4 4.0 63 3.0 WNW 11 17 6 9 1019.1 1019.1 0.0
25/03:30am 10.8 6.7 4.3 64 2.9 WNW 15 17 8 9 1019.1 1019.1 0.0
25/03:00am 11.2 7.5 4.2 62 3.1 WNW 13 17 7 9 1019.0 1019.0 0.0
25/02:30am 11.1 7.4 4.6 64 2.9 W 13 17 7 9 1019.3 1019.3 0.0
25/02:00am 10.8 7.0 3.8 62 3.1 W 13 15 7 8 1019.3 1019.3 0.0
25/01:30am 11.5 7.5 4.7 63 3.1 W 15 19 8 10 1019.8 1019.8 0.0
25/01:00am 11.3 6.9 5.0 65 2.9 W 17 19 9 10 1019.7 1019.7 0.0
25/12:30am 11.6 8.0 6.7 72 2.3 W 15 19 8 10 1019.6 1019.6 0.0
25/12:00am 11.7 8.4 6.4 70 2.5 WNW 13 15 7 8 1019.6 1019.6 0.0
 
Date/Time
EST
Temp
°C
App
Temp
°C
Dew
Point
°C
Rel
Hum
%
Delta-T
°C
Wind Press
QNH
hPa
Press
MSL
hPa
Rain since
9am
mm
Dir  Spd
km/h
Gust
km/h
Spd
kts
Gust
kts
24/11:30pm 11.8 9.0 8.6 81 1.6 WNW 13 17 7 9 1019.6 1019.6 0.0
24/11:00pm 11.5 9.2 9.1 85 1.2 WNW 11 15 6 8 1019.5 1019.5 0.0
24/10:30pm 12.0 10.5 9.2 83 1.4 WNW 7 11 4 6 1019.4 1019.4 0.0
24/10:00pm 12.2 10.7 9.0 81 1.6 WNW 7 11 4 6 1019.3 1019.3 0.0
24/09:30pm 12.6 11.2 8.9 78 1.9 WNW 6 9 3 5 1019.4 1019.4 0.0
24/09:00pm 12.9 11.3 8.8 76 2.1 W 7 9 4 5 1019.5 1019.5 0.0
24/08:30pm 13.5 12.0 8.6 72 2.5 W 6 9 3 5 1019.4 1019.4 0.0
24/08:00pm 14.0 12.1 7.5 65 3.2 NE 7 11 4 6 1019.3 1019.3 0.0
24/07:30pm 14.0 12.2 8.0 67 3.0 NE 7 11 4 6 1019.2 1019.2 0.0
24/07:00pm 14.0 12.2 8.0 67 3.0 E 7 11 4 6 1019.2 1019.2 0.0
24/06:30pm 13.8 11.9 7.6 66 3.1 E 7 11 4 6 1018.9 1018.9 0.0
24/06:00pm 13.9 11.7 7.9 67 3.0 ENE 9 11 5 6 1018.7 1018.7 0.0
24/05:30pm 13.8 11.3 8.0 68 2.9 ENE 11 15 6 8 1018.1 1018.1 0.0
24/05:00pm 13.8 11.3 8.2 69 2.8 E 11 15 6 8 1017.8 1017.8 0.0
24/04:30pm 13.9 11.3 7.9 67 3.0 ENE 11 15 6 8 1017.5 1017.5 0.0
24/04:00pm 14.1 10.9 8.3 68 2.9 ENE 15 17 8 9 1017.2 1017.2 0.0
24/03:30pm 14.2 10.9 8.2 67 3.0 E 15 19 8 10 1016.8 1016.8 0.0
24/03:00pm 14.3 10.7 8.5 68 2.9 E 17 19 9 10 1016.7 1016.7 0.0
24/02:30pm 14.4 11.2 8.6 68 2.9 E 15 19 8 10 1016.7 1016.7 0.0
24/02:00pm 14.4 11.3 8.8 69 2.8 E 15 17 8 9 1016.8 1016.8 0.0
24/01:30pm 14.4 11.7 8.8 69 2.8 E 13 15 7 8 1016.9 1016.9 0.0
24/01:00pm 14.6 11.4 8.3 66 3.2 ESE 15 17 8 9 1017.0 1017.0 0.0
24/12:30pm 15.1 12.2 6.7 57 4.1 ESE 11 15 6 8 1017.4 1017.4 0.0
24/12:00pm 15.2 12.8 7.0 58 4.0 ESE 9 13 5 7 1017.9 1017.9 0.0
24/11:30am 14.7 12.4 7.3 61 3.6 SE 9 13 5 7 1018.2 1018.2 0.0
24/11:00am 14.6 12.6 6.9 60 3.8 SE 7 11 4 6 1018.5 1018.5 0.0
24/10:30am 14.2 12.1 8.4 68 2.9 SSE 9 13 5 7 1018.5 1018.5 0.0
24/10:00am 15.9 14.2 7.4 57 4.2 W 6 7 3 4 1018.3 1018.3 0.0
24/09:30am 15.5 13.4 6.8 56 4.3 W 7 9 4 5 1018.2 1018.2 0.0
24/09:00am 14.0 12.1 6.8 62 3.5 SW 6 7 3 4 1017.9 1017.9 0.0
24/08:30am 14.0 12.2 7.3 64 3.3 WNW 6 7 3 4 1017.6 1017.6 0.0
24/08:00am 12.7 10.5 8.0 73 2.3 WNW 9 13 5 7 1017.3 1017.3 0.0
24/07:30am 12.2 10.3 7.7 74 2.2 W 7 11 4 6 1017.0 1017.0 0.0
24/07:00am 11.9 9.6 7.6 75 2.1 SSW 9 13 5 7 1016.6 1016.6 0.0
24/06:30am 11.9 10.0 7.4 74 2.2 SW 7 11 4 6 1016.2 1016.2 0.0
24/06:00am 11.8 9.5 7.5 75 2.1 SW 9 13 5 7 1015.7 1015.7 0.0
24/05:30am 11.8 9.5 7.5 75 2.1 SSW 9 13 5 7 1015.1 1015.1 0.0
24/05:00am 12.0 9.7 7.5 74 2.2 SW 9 13 5 7 1014.8 1014.8 0.0
24/04:30am 12.3 9.6 7.2 71 2.5 SW 11 13 6 7 1014.6 1014.6 0.0
24/04:00am 12.8 10.1 7.3 69 2.7 SW 11 15 6 8 1014.5 1014.5 0.0
24/03:30am 12.7 10.7 7.0 68 2.8 WSW 7 9 4 5 1014.1 1014.1 0.0
24/03:00am 12.6 10.7 6.6 67 2.9 SW 6 7 3 4 1014.1 1014.1 0.0
24/02:30am 13.2 10.8 6.8 65 3.1 SW 9 13 5 7 1014.1 1014.1 0.0
24/02:00am 13.1 10.4 7.5 69 2.7 SSW 11 13 6 7 1013.9 1013.9 0.0
24/01:30am 13.2 10.5 7.4 68 2.8 WSW 11 13 6 7 1013.7 1013.7 0.0
24/01:00am 14.2 11.5 7.3 63 3.4 WNW 11 15 6 8 1013.5 1013.5 0.0
24/12:30am 14.2 10.5 6.1 58 3.9 W 15 19 8 10 1013.3 1013.3 0.0
24/12:00am 14.1 10.5 5.2 55 4.2 W 13 17 7 9 1013.4 1013.4 0.0
 
Date/Time
EST
Temp
°C
App
Temp
°C
Dew
Point
°C
Rel
Hum
%
Delta-T
°C
Wind Press
QNH
hPa
Press
MSL
hPa
Rain since
9am
mm
Dir  Spd
km/h
Gust
km/h
Spd
kts
Gust
kts
23/11:30pm 14.9 11.7 6.7 58 4.0 WNW 13 17 7 9 1013.2 1013.2 0.0
23/11:00pm 15.0 11.8 5.0 51 4.7 WNW 11 15 6 8 1013.2 1013.2 0.0
23/10:30pm 15.7 10.9 5.6 51 4.8 WNW 20 24 11 13 1013.1 1013.1 0.0
23/10:00pm 15.6 12.1 5.5 51 4.8 WNW 13 17 7 9 1013.1 1013.1 0.0
23/09:30pm 16.0 10.5 2.1 39 6.2 WNW 20 26 11 14 1012.7 1012.8 0.0
23/09:00pm 15.8 10.5 2.9 42 5.9 WNW 20 26 11 14 1012.7 1012.8 0.0
23/08:30pm 16.0 11.1 1.7 38 6.3 WNW 17 24 9 13 1012.3 1012.4 0.0
23/08:00pm 15.8 11.9 3.3 43 5.7 WNW 13 24 7 13 1012.2 1012.3 0.0
23/07:30pm 16.3 11.1 3.4 42 5.9 W 20 28 11 15 1011.5 1011.5 0.0
23/07:00pm 16.9 9.9 1.8 36 6.8 W 28 35 15 19 1010.9 1010.9 0.0
23/06:30pm 17.5 9.5 1.5 34 7.1 W 33 43 18 23 1010.4 1010.4 0.0
23/06:00pm 17.4 11.9 1.8 35 7.0 W 20 28 11 15 1010.0 1010.0 0.0
23/05:30pm 18.1 11.8 1.6 33 7.4 WSW 24 32 13 17 1009.4 1009.4 0.0
23/05:00pm 18.3 14.5 3.8 38 6.8 WSW 13 19 7 10 1009.2 1009.2 0.0
23/04:30pm 19.1 13.4 2.9 34 7.5 W 22 30 12 16 1008.6 1008.6 0.0
23/04:00pm 20.1 12.8 2.5 31 8.2 W 30 41 16 22 1008.1 1008.1 0.0
23/03:30pm 19.4 14.9 4.0 36 7.3 NW 17 24 9 13 1007.9 1007.9 0.0
23/03:00pm 18.6 13.8 5.5 42 6.4 NNW 20 33 11 18 1007.8 1007.8 0.0
23/02:30pm 17.9 14.0 8.5 54 4.9 N 19 24 10 13 1007.6 1007.6 0.0
23/02:00pm 17.5 14.0 8.9 57 4.5 N 17 20 9 11 1007.9 1007.9 0.0
23/01:30pm 17.5 13.8 8.1 54 4.8 NNE 17 24 9 13 1008.4 1008.4 0.0
23/01:00pm 17.0 12.6 6.5 50 5.2 NNE 19 24 10 13 1009.0 1009.0 0.0
23/12:30pm 16.5 12.5 6.6 52 4.9 NNE 17 20 9 11 1009.7 1009.7 0.0
23/12:00pm 16.3 12.1 5.6 49 5.2 N 17 20 9 11 1010.5 1010.5 0.0
23/11:30am 16.4 12.7 4.4 45 5.6 NNW 13 19 7 10 1011.4 1011.4 0.0
23/11:00am 16.5 12.6 5.5 48 5.3 N 15 19 8 10 1012.1 1012.2 0.0
23/10:30am 15.3 11.9 6.1 54 4.4 N 13 17 7 9 1012.4 1012.5 0.0
23/10:00am 14.9 12.7 6.0 55 4.3 N 7 15 4 8 1012.7 1012.8 0.0
23/09:30am 14.6 11.5 3.7 48 5.0 NNE 9 13 5 7 1012.9 1013.0 0.0
23/09:00am 15.7 13.2 3.5 44 5.6 N 6 9 3 5 1012.9 1013.0 0.0
23/08:30am 13.3 10.0 4.5 55 4.0 NNW 11 13 6 7 1012.9 1013.0 0.0
23/08:00am 13.2 9.9 4.6 56 4.0 N 11 13 6 7 1012.7 1012.8 0.0
23/07:30am 12.4 9.1 4.4 58 3.6 NNW 11 15 6 8 1012.7 1012.8 0.0
23/07:00am 12.5 8.9 2.7 51 4.3 NNW 11 15 6 8 1012.8 1012.9 0.0
23/06:30am 12.9 9.0 1.3 45 5.0 NNW 11 17 6 9 1012.4 1012.5 0.0
23/06:00am 12.5 8.9 2.7 51 4.3 NNW 11 15 6 8 1012.5 1012.6 0.0
23/05:30am 12.2 8.8 2.1 50 4.4 NNW 9 13 5 7 1012.6 1012.7 0.0
23/05:00am 12.2 8.4 1.8 49 4.5 NNW 11 13 6 7 1012.5 1012.6 0.0
23/04:30am 11.7 8.9 5.1 64 3.0 NNW 9 13 5 7 1012.5 1012.6 0.0
23/04:00am 11.7 8.8 4.4 61 3.3 NNW 9 13 5 7 1012.6 1012.7 0.0
23/03:30am 12.1 9.3 5.3 63 3.2 NW 9 13 5 7 1012.5 1012.6 0.0
23/03:00am 12.7 10.2 4.7 58 3.7 NW 7 11 4 6 1012.7 1012.8 0.0
23/02:30am 12.8 9.5 2.6 50 4.5 NW 9 13 5 7 1013.2 1013.2 0.0
23/02:00am 12.5 8.8 2.4 50 4.4 NW 11 15 6 8 1013.1 1013.1 0.0
23/01:30am 12.6 8.1 2.2 49 4.5 NW 15 20 8 11 1013.3 1013.3 0.0
23/01:00am 12.1 7.9 3.9 57 3.7 NNW 15 19 8 10 1013.3 1013.3 0.0
23/12:30am 12.4 8.6 4.1 57 3.8 NW 13 17 7 9 1013.8 1013.8 0.0
23/12:00am 12.5 8.6 3.2 53 4.1 NW 13 17 7 9 1014.3 1014.3 0.0
 
Date/Time
EST
Temp
°C
App
Temp
°C
Dew
Point
°C
Rel
Hum
%
Delta-T
°C
Wind Press
QNH
hPa
Press
MSL
hPa
Rain since
9am
mm
Dir  Spd
km/h
Gust
km/h
Spd
kts
Gust
kts
22/11:30pm 11.6 7.7 5.3 65 2.9 NNW 15 19 8 10 1014.6 1014.6 0.0
22/11:00pm 11.6 8.1 5.5 66 2.8 NNW 13 17 7 9 1014.7 1014.7 0.0
22/10:30pm 11.7 8.2 5.6 66 2.8 NNW 13 15 7 8 1014.8 1014.8 0.0
22/10:00pm 11.4 9.3 8.1 80 1.6 NW 9 13 5 7 1015.0 1015.0 0.0
22/09:30pm 12.3 10.2 8.4 77 1.9 NNW 9 13 5 7 1015.1 1015.1 0.0
22/09:00pm 12.1 10.2 8.9 81 1.6 NW 9 13 5 7 1015.3 1015.3 0.0
22/08:30pm 12.0 10.1 9.0 82 1.5 NW 9 13 5 7 1015.4 1015.4 0.0
22/08:00pm 12.5 11.0 9.3 81 1.6 WNW 7 11 4 6 1015.6 1015.6 0.0
22/07:30pm 13.7 12.5 9.6 76 2.1 NW 6 9 3 5 1015.5 1015.5 0.0
22/07:00pm 13.9 12.0 8.9 72 2.5 N 9 13 5 7 1015.6 1015.6 0.0
22/06:30pm 13.9 11.8 8.3 69 2.8 NNE 9 13 5 7 1015.6 1015.6 0.0
22/06:00pm 13.5 10.8 7.5 67 2.9 NNE 11 13 6 7 1015.6 1015.6 0.0
22/05:30pm 13.5 10.4 7.3 66 3.0 NNE 13 17 7 9 1015.5 1015.5 0.0
22/05:00pm 13.1 9.9 6.9 66 3.0 NNE 13 15 7 8 1015.4 1015.4 0.0
22/04:30pm 13.1 9.8 6.2 63 3.3 NNE 13 15 7 8 1015.4 1015.4 0.0
22/04:00pm 13.6 10.8 5.3 57 3.9 NNE 9 13 5 7 1015.9 1015.9 0.0
22/03:30pm 14.0 11.2 5.1 55 4.2 NNE 9 13 5 7 1015.9 1015.9 0.0
22/03:00pm 14.1 11.6 4.7 53 4.4 NNE 7 11 4 6 1016.2 1016.2 0.0
22/02:30pm 13.4 10.9 4.6 55 4.1 NNE 7 11 4 6 1016.4 1016.4 0.0
22/02:00pm 13.0 10.1 4.7 57 3.8 NNE 9 13 5 7 1016.8 1016.8 0.0
22/01:30pm 13.4 11.1 5.8 60 3.6 NE 7 11 4 6 1017.3 1017.3 0.0
22/01:00pm 13.8 12.3 4.9 55 4.1 NNE 2 9 1 5 1017.9 1017.9 0.0
22/12:30pm 13.8 11.4 4.1 52 4.4 N 6 9 3 5 1018.4 1018.4 0.0
22/12:00pm 13.1 10.5 4.3 55 4.0 NNE 7 9 4 5 1018.9 1018.9 0.0
22/11:30am 13.1 10.7 4.3 55 4.0 NE 6 9 3 5 1019.6 1019.6 0.0
22/11:00am 13.0 10.4 3.1 51 4.4 NNW 6 9 3 5 1020.1 1020.1 0.0
22/10:30am 12.9 10.5 4.3 56 3.9 N 6 9 3 5 1020.2 1020.2 0.0
22/10:00am 12.3 10.0 4.8 60 3.4 NW 6 9 3 5 1020.5 1020.5 0.0
22/09:30am 11.8 9.2 4.3 60 3.4 WNW 7 9 4 5 1020.8 1020.8 0.0
22/09:00am 11.1 8.6 4.8 65 2.9 WNW 7 11 4 6 1021.0 1021.0 0.0

Other Formats:

Comma delimited format used in spreadsheet applications
http://www.bom.gov.au/fwo/IDN60801/IDN60801.94939.axf

JavaScript Object Notation format (JSON) in row-major order
http://www.bom.gov.au/fwo/IDN60801/IDN60801.94939.json